Time;durP1;ratioP1;P1;durP2;ratioP2;P2;SDS_P1;SDS_P2;PMS_P1;PMS_P2;Temp;Humidity;BMP_temperature;BMP_pressure;BME280_temperature;BME280_humidity;BME280_pressure;Samples;Min_cycle;Max_cycle;Signal;HPM_P1;HPM_P2
2022/10/29 04:00:23;;;;;;;12.60;5.07;;;12.60;99.90;;;;;;6066691;23;20390;-77
2022/10/29 04:02:50;;;;;;;8.40;4.67;;;12.60;99.90;;;;;;4987869;28;20472;-77
2022/10/29 04:05:17;;;;;;;11.43;4.57;;;12.60;99.90;;;;;;4986809;28;20758;-77
2022/10/29 04:07:44;;;;;;;11.30;4.93;;;12.60;99.90;;;;;;4986938;28;20491;-77
2022/10/29 04:10:11;;;;;;;8.93;4.70;;;12.60;99.90;;;;;;4987624;28;20466;-77
2022/10/29 04:12:37;;;;;;;15.53;4.83;;;12.60;99.90;;;;;;4987038;28;20459;-77
2022/10/29 04:15:05;;;;;;;9.40;4.33;;;12.60;99.90;;;;;;4987037;28;20807;-77
2022/10/29 04:17:33;;;;;;;10.17;5.30;;;12.60;99.90;;;;;;4987737;28;20478;-77
2022/10/29 04:20:00;;;;;;;8.60;4.20;;;12.60;99.90;;;;;;4987240;28;20460;-77
2022/10/29 04:22:27;;;;;;;18.57;6.00;;;12.60;99.90;;;;;;4985961;28;20487;-76
2022/10/29 04:24:53;;;;;;;16.80;5.30;;;12.60;99.90;;;;;;4987555;28;20463;-77
2022/10/29 04:27:20;;;;;;;13.17;5.37;;;12.60;99.90;;;;;;4987725;28;20502;-77
2022/10/29 04:29:47;;;;;;;11.00;4.70;;;12.70;99.90;;;;;;4987555;28;20460;-76
2022/10/29 04:32:14;;;;;;;16.90;5.10;;;12.60;99.90;;;;;;4986758;28;20483;-76
2022/10/29 04:34:42;;;;;;;12.37;5.97;;;12.70;99.90;;;;;;4987095;28;20468;-77
2022/10/29 04:37:09;;;;;;;13.67;5.63;;;12.70;99.90;;;;;;4987155;28;20458;-77
2022/10/29 04:39:35;;;;;;;12.43;5.80;;;12.70;99.90;;;;;;4986998;28;20470;-77
2022/10/29 04:42:02;;;;;;;12.53;5.80;;;12.70;99.90;;;;;;4987473;28;20489;-77
2022/10/29 04:44:29;;;;;;;12.60;5.03;;;12.70;99.90;;;;;;4986920;28;20463;-77
2022/10/29 04:46:56;;;;;;;16.30;6.87;;;12.70;99.90;;;;;;4986934;28;20495;-77
2022/10/29 04:49:22;;;;;;;10.40;5.57;;;12.70;99.90;;;;;;4987029;28;20460;-77
2022/10/29 04:51:51;;;;;;;12.10;5.27;;;12.70;99.90;;;;;;4987013;28;20480;-78
2022/10/29 04:54:17;;;;;;;10.67;5.20;;;12.70;99.90;;;;;;4986026;28;20470;-77
2022/10/29 04:56:44;;;;;;;11.10;5.37;;;12.70;99.90;;;;;;4987145;28;20456;-77
2022/10/29 04:59:11;;;;;;;11.40;4.93;;;12.70;99.90;;;;;;4986340;28;20817;-77
2022/10/29 05:01:38;;;;;;;13.67;4.70;;;12.70;99.90;;;;;;4987167;28;20496;-77
2022/10/29 05:04:05;;;;;;;12.90;5.23;;;12.70;99.90;;;;;;4986072;28;20948;-77
2022/10/29 05:06:31;;;;;;;18.87;5.23;;;12.70;99.90;;;;;;4986406;28;20487;-77
2022/10/29 05:09:00;;;;;;;10.30;4.23;;;12.70;99.90;;;;;;4986717;28;20464;-76
2022/10/29 05:11:26;;;;;;;13.83;5.03;;;12.70;99.90;;;;;;4986983;28;20554;-77
2022/10/29 05:13:53;;;;;;;11.03;4.60;;;12.70;99.90;;;;;;4986894;28;20467;-77
2022/10/29 05:16:20;;;;;;;15.27;5.53;;;12.70;99.90;;;;;;4986249;28;20467;-76
2022/10/29 05:18:46;;;;;;;10.80;5.07;;;12.70;99.90;;;;;;4986755;28;20844;-77
2022/10/29 05:21:13;;;;;;;8.10;5.20;;;12.70;99.90;;;;;;4986558;28;20479;-77
2022/10/29 05:23:40;;;;;;;11.03;4.97;;;12.70;99.90;;;;;;4986313;28;20463;-77
2022/10/29 05:26:08;;;;;;;10.80;5.40;;;12.70;99.90;;;;;;4986168;28;20483;-77
2022/10/29 05:28:35;;;;;;;17.60;5.70;;;12.70;99.90;;;;;;4986925;28;20499;-77
2022/10/29 05:31:02;;;;;;;11.43;4.43;;;12.70;99.90;;;;;;4985724;28;20490;-77
2022/10/29 05:33:29;;;;;;;11.87;4.50;;;12.70;99.90;;;;;;4986643;28;20447;-77
2022/10/29 05:35:55;;;;;;;13.37;5.83;;;12.60;99.90;;;;;;4985721;28;20463;-77
2022/10/29 05:38:22;;;;;;;9.53;5.57;;;12.60;99.90;;;;;;4986440;28;20481;-77
2022/10/29 05:40:49;;;;;;;9.10;4.60;;;12.60;99.90;;;;;;4986325;28;21425;-76
2022/10/29 05:43:17;;;;;;;12.23;5.87;;;12.60;99.90;;;;;;4986325;28;20467;-77
2022/10/29 05:45:44;;;;;;;10.97;5.27;;;12.60;99.90;;;;;;4986270;28;20459;-77
2022/10/29 05:48:12;;;;;;;10.10;6.00;;;12.60;99.90;;;;;;4987239;28;20490;-77
2022/10/29 05:50:39;;;;;;;14.30;6.03;;;12.60;99.90;;;;;;4987010;28;20472;-78
2022/10/29 05:53:09;;;;;;;12.37;6.07;;;12.60;99.90;;;;;;4989239;28;20463;-77
2022/10/29 05:55:36;;;;;;;13.97;5.70;;;12.50;99.90;;;;;;4988616;28;20455;-76
2022/10/29 05:58:05;;;;;;;15.30;5.73;;;12.50;99.90;;;;;;4988691;28;21042;-78
2022/10/29 06:00:35;;;;;;;16.60;5.80;;;12.60;99.90;;;;;;4988340;28;21021;-78
2022/10/29 06:03:02;;;;;;;25.77;6.37;;;12.50;99.90;;;;;;4988141;28;20440;-78
2022/10/29 06:05:28;;;;;;;11.87;5.80;;;12.50;99.90;;;;;;4986986;28;20470;-77
2022/10/29 06:07:58;;;;;;;10.60;5.43;;;12.60;99.90;;;;;;4987916;28;21034;-81
2022/10/29 06:10:26;;;;;;;15.67;5.30;;;12.60;99.90;;;;;;4990737;28;20459;-77
2022/10/29 06:12:53;;;;;;;13.63;5.00;;;12.50;99.90;;;;;;4994116;28;20858;-81
2022/10/29 06:15:20;;;;;;;9.23;5.50;;;12.50;99.90;;;;;;4993806;28;20472;-82
2022/10/29 06:17:49;;;;;;;9.10;5.30;;;12.50;99.90;;;;;;4993076;28;20838;-75
2022/10/29 06:20:17;;;;;;;12.73;5.33;;;12.40;99.90;;;;;;4990420;28;20816;-79
2022/10/29 06:22:44;;;;;;;11.13;4.97;;;12.40;99.90;;;;;;4989993;28;20454;-74
2022/10/29 06:25:11;;;;;;;11.90;6.17;;;12.40;99.90;;;;;;4990632;28;20555;-77
2022/10/29 06:27:38;;;;;;;11.40;5.93;;;12.50;99.90;;;;;;4990628;28;20492;-76
2022/10/29 06:30:05;;;;;;;10.57;5.30;;;12.40;99.90;;;;;;4990512;28;20459;-76
2022/10/29 06:32:32;;;;;;;17.33;6.10;;;12.40;99.90;;;;;;4990676;28;20475;-77
2022/10/29 06:35:01;;;;;;;11.43;5.53;;;12.40;99.90;;;;;;4990047;28;20518;-79
2022/10/29 06:37:31;;;;;;;9.00;5.40;;;12.40;99.90;;;;;;4992064;28;20435;-77
2022/10/29 06:39:58;;;;;;;15.13;5.10;;;12.40;99.90;;;;;;4991636;28;20468;-79
2022/10/29 06:42:25;;;;;;;11.50;6.17;;;12.40;99.90;;;;;;4992696;28;20476;-80
2022/10/29 06:44:52;;;;;;;14.73;6.10;;;12.40;99.90;;;;;;4990601;28;20471;-78
2022/10/29 06:47:19;;;;;;;11.00;5.40;;;12.40;99.90;;;;;;4992938;28;20494;-80
2022/10/29 06:49:45;;;;;;;13.37;6.10;;;12.50;99.90;;;;;;4995354;28;20471;-80
2022/10/29 06:52:14;;;;;;;7.97;5.73;;;12.40;99.90;;;;;;4992873;28;20474;-78
2022/10/29 06:54:40;;;;;;;17.43;5.63;;;12.40;99.90;;;;;;4990132;28;20837;-77
2022/10/29 06:57:07;;;;;;;11.33;5.53;;;12.50;99.90;;;;;;4990643;28;20460;-74
2022/10/29 06:59:34;;;;;;;9.30;5.33;;;12.40;99.90;;;;;;4990582;28;20478;-78
2022/10/29 07:02:01;;;;;;;7.87;5.10;;;12.40;99.90;;;;;;4991133;28;20482;-81
2022/10/29 07:04:27;;;;;;;10.93;5.53;;;12.50;99.90;;;;;;4991593;28;20482;-78
2022/10/29 07:06:54;;;;;;;11.20;5.87;;;12.50;99.90;;;;;;4992704;28;20452;-78
2022/10/29 07:09:22;;;;;;;13.53;5.50;;;12.50;99.90;;;;;;4991379;28;20483;-78
2022/10/29 07:11:49;;;;;;;11.53;6.17;;;12.50;99.90;;;;;;4991579;28;20488;-78
2022/10/29 07:14:16;;;;;;;16.07;6.00;;;12.50;99.90;;;;;;4990704;28;20464;-76
2022/10/29 07:16:42;;;;;;;10.17;5.57;;;12.60;99.90;;;;;;4991010;28;20482;-79
2022/10/29 07:19:09;;;;;;;11.07;6.30;;;12.50;99.90;;;;;;4992648;28;20448;-79
2022/10/29 07:21:36;;;;;;;15.47;7.43;;;12.50;99.90;;;;;;4992195;28;21342;-77
2022/10/29 07:24:03;;;;;;;7.97;6.03;;;12.60;99.90;;;;;;4989407;28;20466;-75
2022/10/29 07:26:31;;;;;;;14.80;6.40;;;12.60;99.90;;;;;;4988432;28;20466;-78
2022/10/29 07:28:58;;;;;;;13.30;6.97;;;12.60;99.90;;;;;;4989483;28;20499;-76
2022/10/29 07:31:27;;;;;;;15.60;6.83;;;12.60;99.90;;;;;;4989924;28;20479;-76
2022/10/29 07:33:54;;;;;;;13.70;6.30;;;12.60;99.90;;;;;;4989725;28;20470;-75
2022/10/29 07:36:21;;;;;;;11.30;6.00;;;12.60;99.90;;;;;;4988340;28;20467;-78
2022/10/29 07:38:47;;;;;;;10.60;6.50;;;12.60;99.90;;;;;;4989786;28;20449;-77
2022/10/29 07:41:14;;;;;;;10.03;5.60;;;12.70;99.90;;;;;;4991075;28;20840;-75
2022/10/29 07:43:43;;;;;;;14.53;6.60;;;12.70;99.90;;;;;;4990692;28;20452;-77
2022/10/29 07:46:09;;;;;;;13.43;6.33;;;12.80;99.90;;;;;;4987560;28;20460;-77
2022/10/29 07:48:36;;;;;;;12.13;6.27;;;12.80;99.90;;;;;;4989648;28;20491;-74
2022/10/29 07:51:03;;;;;;;15.90;6.93;;;12.90;99.90;;;;;;4988356;28;20494;-77
2022/10/29 07:53:31;;;;;;;15.13;5.53;;;12.90;99.90;;;;;;4989156;28;20466;-77
2022/10/29 07:55:58;;;;;;;16.20;6.50;;;13.00;99.90;;;;;;4990153;28;20514;-74
2022/10/29 07:58:26;;;;;;;17.27;6.77;;;13.00;99.90;;;;;;4990304;28;20448;-78
2022/10/29 08:00:54;;;;;;;16.60;6.80;;;13.10;99.90;;;;;;4990182;28;20578;-76
2022/10/29 08:03:21;;;;;;;11.07;6.87;;;13.10;99.90;;;;;;4990382;28;20471;-78
2022/10/29 08:05:48;;;;;;;19.40;6.73;;;13.20;99.90;;;;;;4990878;28;20463;-80
2022/10/29 08:08:16;;;;;;;13.30;6.63;;;13.20;99.90;;;;;;4990348;28;20499;-79
2022/10/29 08:10:43;;;;;;;13.50;7.10;;;13.20;99.90;;;;;;4990209;28;21260;-77
2022/10/29 08:13:10;;;;;;;11.80;6.30;;;13.30;99.90;;;;;;4990227;28;20447;-75
2022/10/29 08:15:38;;;;;;;13.60;6.70;;;13.40;99.90;;;;;;4988887;28;20467;-78
2022/10/29 08:18:14;;;;;;;13.60;6.10;;;13.60;99.90;;;;;;4992041;28;20464;-78
2022/10/29 08:20:40;;;;;;;13.43;6.60;;;13.60;99.90;;;;;;4994374;28;20486;-76
2022/10/29 08:23:07;;;;;;;17.73;7.53;;;13.70;99.90;;;;;;5000400;28;20466;-75
2022/10/29 08:25:39;;;;;;;15.13;6.60;;;13.70;99.90;;;;;;5000845;28;20455;-77
2022/10/29 08:28:08;;;;;;;14.63;6.47;;;13.80;99.90;;;;;;5002039;28;20529;-77
2022/10/29 08:30:42;;;;;;;11.73;6.03;;;13.90;99.90;;;;;;4996984;28;20464;-78
2022/10/29 08:33:13;;;;;;;10.10;6.40;;;14.00;99.90;;;;;;4994480;28;20471;-78
2022/10/29 08:35:40;;;;;;;10.80;6.47;;;14.10;99.90;;;;;;4992707;28;20456;-78
2022/10/29 08:38:07;;;;;;;12.43;7.00;;;14.20;99.90;;;;;;4997732;28;20452;-77
2022/10/29 08:40:44;;;;;;;10.80;7.10;;;14.20;99.90;;;;;;5002397;28;20489;-76
2022/10/29 08:43:36;;;;;;;11.90;6.30;;;14.20;99.90;;;;;;5002579;28;20819;-78
2022/10/29 08:46:03;;;;;;;15.00;7.30;;;14.40;99.90;;;;;;4994712;28;20568;-76
2022/10/29 08:48:39;;;;;;;10.13;6.37;;;14.60;99.90;;;;;;4994223;28;20496;-78
2022/10/29 08:51:14;;;;;;;10.47;6.50;;;14.60;99.90;;;;;;4994097;28;20507;-78
2022/10/29 08:53:44;;;;;;;16.30;6.40;;;14.70;99.90;;;;;;4993167;28;20919;-78
2022/10/29 08:56:16;;;;;;;13.03;6.37;;;14.70;99.90;;;;;;4992926;28;20451;-79
2022/10/29 08:58:52;;;;;;;9.90;6.30;;;14.90;99.90;;;;;;4992998;28;20460;-76
2022/10/29 09:01:22;;;;;;;12.90;7.07;;;15.20;99.90;;;;;;4992152;28;21003;-77
2022/10/29 09:03:51;;;;;;;12.47;6.70;;;15.30;99.90;;;;;;4991054;28;20455;-76
2022/10/29 09:06:25;;;;;;;11.23;5.83;;;15.50;99.90;;;;;;4986281;28;20455;-77
2022/10/29 09:09:06;;;;;;;12.03;6.97;;;15.60;99.90;;;;;;4988109;28;20522;-79
2022/10/29 09:11:47;;;;;;;16.73;6.50;;;15.70;99.90;;;;;;4986809;28;20855;-78
2022/10/29 09:14:50;;;;;;;11.13;6.70;;;15.80;99.90;;;;;;4980416;28;20959;-76
2022/10/29 09:17:26;;;;;;;9.53;5.90;;;16.00;99.90;;;;;;4984258;28;20470;-76
2022/10/29 09:20:07;;;;;;;13.13;6.00;;;16.20;99.90;;;;;;4986972;28;20463;-78
2022/10/29 09:22:41;;;;;;;9.40;5.77;;;16.40;99.90;;;;;;4990211;28;20487;-78
2022/10/29 09:25:17;;;;;;;11.23;5.70;;;16.40;99.90;;;;;;4990064;28;20448;-78
2022/10/29 09:28:00;;;;;;;14.47;5.77;;;16.50;99.90;;;;;;4989832;28;20490;-78
2022/10/29 09:30:30;;;;;;;10.67;5.77;;;16.50;99.90;;;;;;4989536;28;20549;-77
2022/10/29 09:33:00;;;;;;;14.40;5.40;;;16.50;99.90;;;;;;4989100;28;20444;-78
2022/10/29 09:35:37;;;;;;;19.23;6.00;;;16.50;99.90;;;;;;4989227;28;20463;-79
2022/10/29 09:38:08;;;;;;;11.53;6.77;;;16.50;99.90;;;;;;4988074;28;20440;-76
2022/10/29 09:40:38;;;;;;;18.13;6.50;;;16.60;99.90;;;;;;4987367;28;20492;-77
2022/10/29 09:43:12;;;;;;;11.07;5.83;;;16.70;99.90;;;;;;4989500;28;20463;-78
2022/10/29 09:45:46;;;;;;;18.57;6.23;;;16.80;99.90;;;;;;4989276;28;20431;-78
2022/10/29 09:48:19;;;;;;;9.90;4.80;;;17.00;99.90;;;;;;4990217;28;20498;-78
2022/10/29 09:50:54;;;;;;;10.33;5.30;;;17.20;99.90;;;;;;4990112;28;20489;-78
2022/10/29 09:53:21;;;;;;;13.13;6.10;;;17.40;99.90;;;;;;4990459;28;20455;-77
2022/10/29 09:55:52;;;;;;;12.83;4.87;;;17.60;99.90;;;;;;4987014;28;20471;-77
2022/10/29 09:58:21;;;;;;;11.47;5.50;;;17.80;99.90;;;;;;4985716;28;20459;-76
2022/10/29 10:00:48;;;;;;;10.83;5.10;;;18.10;99.90;;;;;;4989943;28;20491;-79
2022/10/29 10:03:20;;;;;;;14.63;5.40;;;18.50;99.90;;;;;;4990127;28;20471;-78
2022/10/29 10:05:59;;;;;;;13.87;5.13;;;18.80;99.90;;;;;;4989860;28;20448;-78
2022/10/29 10:08:27;;;;;;;14.20;5.50;;;19.00;99.90;;;;;;4988888;28;20509;-79
2022/10/29 10:10:55;;;;;;;11.03;5.10;;;19.30;99.90;;;;;;4990531;28;20479;-78
2022/10/29 10:13:24;;;;;;;17.17;5.00;;;19.40;99.90;;;;;;4990995;28;20460;-79
2022/10/29 10:15:54;;;;;;;17.43;5.90;;;19.60;99.90;;;;;;4989501;28;21199;-79
2022/10/29 10:18:23;;;;;;;13.90;4.57;;;19.70;99.90;;;;;;4990356;28;20455;-79
2022/10/29 10:21:01;;;;;;;11.10;4.60;;;19.80;99.90;;;;;;4989925;28;20490;-77
2022/10/29 10:23:30;;;;;;;12.93;4.80;;;20.00;99.90;;;;;;4988501;28;20447;-76
2022/10/29 10:25:59;;;;;;;11.10;5.13;;;20.10;99.90;;;;;;4988246;28;20542;-77
2022/10/29 10:28:28;;;;;;;11.30;4.27;;;20.30;99.90;;;;;;4989702;28;21007;-78
2022/10/29 10:31:22;;;;;;;15.30;4.30;;;20.40;99.90;;;;;;4990357;28;20482;-78
2022/10/29 10:33:51;;;;;;;13.40;4.93;;;20.60;99.90;;;;;;4977085;28;20464;-78
2022/10/29 10:36:22;;;;;;;13.23;4.50;;;20.80;99.90;;;;;;4989261;28;20451;-78
2022/10/29 10:38:51;;;;;;;18.37;4.60;;;21.00;99.90;;;;;;4990125;28;20840;-78
2022/10/29 10:41:24;;;;;;;12.47;4.70;;;21.10;99.90;;;;;;4989285;28;20483;-79
2022/10/29 10:43:51;;;;;;;18.23;4.23;;;21.30;99.90;;;;;;4991586;28;21168;-77
2022/10/29 10:46:24;;;;;;;13.50;4.07;;;21.40;99.90;;;;;;4989685;28;20451;-78
2022/10/29 10:48:59;;;;;;;13.50;4.47;;;21.40;99.90;;;;;;4992389;28;20483;-78
2022/10/29 10:51:30;;;;;;;9.60;4.23;;;21.60;99.90;;;;;;4989538;28;20976;-79
2022/10/29 10:53:57;;;;;;;14.50;4.60;;;22.00;99.90;;;;;;4989770;28;20444;-78
2022/10/29 10:56:24;;;;;;;15.33;4.60;;;22.20;99.90;;;;;;4990218;28;20547;-77
2022/10/29 10:59:07;;;;;;;8.20;4.67;;;22.60;99.90;;;;;;4993649;28;20463;-78
2022/10/29 11:01:38;;;;;;;11.17;5.07;;;22.80;99.90;;;;;;4992899;28;21026;-79
2022/10/29 11:04:14;;;;;;;11.37;4.30;;;23.00;99.90;;;;;;4992794;28;20440;-78
2022/10/29 11:06:46;;;;;;;10.40;4.70;;;23.50;99.90;;;;;;4993086;28;20475;-78
2022/10/29 11:09:20;;;;;;;8.60;3.50;;;23.60;99.90;;;;;;4996491;28;20456;-78
2022/10/29 11:11:54;;;;;;;10.80;4.00;;;23.60;99.90;;;;;;5007319;28;20492;-77
2022/10/29 11:14:27;;;;;;;11.43;4.23;;;23.80;99.90;;;;;;5001448;28;20456;-78
2022/10/29 11:16:56;;;;;;;10.40;4.40;;;24.00;99.90;;;;;;5005273;28;20455;-78
2022/10/29 11:19:27;;;;;;;10.63;3.70;;;24.00;99.90;;;;;;4995555;28;20452;-78
2022/10/29 11:22:03;;;;;;;13.00;4.00;;;24.00;99.90;;;;;;4991366;28;20479;-79
2022/10/29 11:24:39;;;;;;;14.57;4.40;;;24.20;99.90;;;;;;4990286;28;20459;-79
2022/10/29 11:27:17;;;;;;;10.13;4.17;;;24.20;99.90;;;;;;4993760;28;20436;-78
2022/10/29 11:29:52;;;;;;;13.27;4.40;;;24.30;99.90;;;;;;4992803;28;20583;-79
2022/10/29 11:32:23;;;;;;;24.07;4.63;;;24.40;99.90;;;;;;4992024;28;20535;-79
2022/10/29 11:34:56;;;;;;;11.73;4.40;;;24.60;99.90;;;;;;4991999;28;20445;-79
2022/10/29 11:37:32;;;;;;;9.20;3.67;;;24.70;99.90;;;;;;4992718;28;20447;-79
2022/10/29 11:40:03;;;;;;;14.67;4.60;;;24.80;99.90;;;;;;4991847;28;20447;-79
2022/10/29 11:42:30;;;;;;;11.87;4.50;;;25.00;99.90;;;;;;4992482;28;20479;-79
2022/10/29 11:44:59;;;;;;;9.93;4.23;;;25.00;99.90;;;;;;4992004;28;20851;-77
2022/10/29 11:47:41;;;;;;;12.40;4.77;;;25.20;99.90;;;;;;4995185;28;20486;-78
2022/10/29 11:50:22;;;;;;;11.80;4.80;;;25.40;99.90;;;;;;4994640;28;20865;-79
2022/10/29 11:52:59;;;;;;;10.57;4.17;;;25.50;99.90;;;;;;4991952;28;20819;-79
2022/10/29 11:55:37;;;;;;;11.37;4.30;;;25.70;99.90;;;;;;4988321;28;20444;-77
2022/10/29 11:58:15;;;;;;;8.63;4.30;;;25.80;99.90;;;;;;4989255;28;20447;-79
2022/10/29 12:00:54;;;;;;;16.30;6.30;;;26.00;99.90;;;;;;4992019;28;20494;-77
2022/10/29 12:03:57;;;;;;;13.37;5.20;;;26.10;99.90;;;;;;4991576;28;20465;-79
2022/10/29 12:06:32;;;;;;;9.43;4.83;;;26.40;99.90;;;;;;4983782;28;20467;-78
2022/10/29 12:09:26;;;;;;;18.80;8.07;;;26.50;99.90;;;;;;4989381;28;20549;-78
2022/10/29 12:12:02;;;;;;;13.13;6.13;;;26.60;99.90;;;;;;4991168;28;20478;-77
2022/10/29 12:14:35;;;;;;;12.83;4.57;;;26.60;99.90;;;;;;4990448;28;20446;-78
2022/10/29 12:17:08;;;;;;;12.07;4.57;;;26.80;99.90;;;;;;4991514;28;20861;-78
2022/10/29 12:19:46;;;;;;;12.57;3.63;;;26.90;99.90;;;;;;4991321;28;20440;-77
2022/10/29 12:22:27;;;;;;;15.20;5.40;;;27.00;99.90;;;;;;4991046;28;20479;-79
2022/10/29 12:25:14;;;;;;;13.00;5.40;;;27.10;99.90;;;;;;4991187;28;20466;-78
2022/10/29 12:27:45;;;;;;;13.77;4.87;;;27.20;99.90;;;;;;4990944;28;20455;-77
2022/10/29 12:30:15;;;;;;;11.03;4.17;;;27.20;99.90;;;;;;4990536;28;20849;-78
2022/10/29 12:32:52;;;;;;;9.00;4.33;;;27.20;99.90;;;;;;4990592;28;20459;-78
2022/10/29 12:35:27;;;;;;;16.63;4.60;;;27.20;99.90;;;;;;4989700;28;20461;-77
2022/10/29 12:38:10;;;;;;;10.70;4.80;;;27.20;99.90;;;;;;4990458;28;20522;-78
2022/10/29 12:40:42;;;;;;;10.43;4.43;;;27.20;99.90;;;;;;4990527;28;20483;-79
2022/10/29 12:43:23;;;;;;;16.30;5.63;;;27.20;99.90;;;;;;4990551;28;20463;-78
2022/10/29 12:45:56;;;;;;;12.03;4.10;;;27.40;99.90;;;;;;4989384;28;20470;-78
2022/10/29 12:48:30;;;;;;;20.53;4.60;;;27.40;99.90;;;;;;4990178;28;20506;-78
2022/10/29 12:51:03;;;;;;;12.17;4.70;;;27.40;99.90;;;;;;4990128;28;20472;-77
2022/10/29 12:53:39;;;;;;;15.30;7.10;;;27.40;99.90;;;;;;4990253;28;20432;-78
2022/10/29 12:56:10;;;;;;;15.70;7.70;;;27.50;99.90;;;;;;4989716;28;20463;-79
2022/10/29 12:58:51;;;;;;;16.63;6.60;;;27.50;99.90;;;;;;4990369;28;20464;-78
2022/10/29 13:01:45;;;;;;;9.50;5.10;;;27.60;99.90;;;;;;4989797;28;20495;-78
2022/10/29 13:04:26;;;;;;;12.33;4.57;;;27.60;99.90;;;;;;4988197;28;20594;-78
2022/10/29 13:07:05;;;;;;;13.27;4.90;;;27.60;99.90;;;;;;4991002;28;20944;-78
2022/10/29 13:09:34;;;;;;;14.60;5.07;;;27.70;99.90;;;;;;4989314;28;20991;-78
2022/10/29 13:12:05;;;;;;;11.60;4.10;;;27.70;99.90;;;;;;4989843;28;20479;-78
2022/10/29 13:14:39;;;;;;;17.10;4.30;;;27.70;99.90;;;;;;4989328;28;20456;-78
2022/10/29 13:17:27;;;;;;;11.83;4.50;;;27.60;99.90;;;;;;4989540;28;20467;-78
2022/10/29 13:19:57;;;;;;;15.17;6.13;;;27.60;99.90;;;;;;4988941;28;21246;-78
2022/10/29 13:22:46;;;;;;;14.90;4.87;;;27.50;99.90;;;;;;4990127;28;20475;-79
2022/10/29 13:25:50;;;;;;;12.93;4.23;;;27.50;99.90;;;;;;4987836;28;20456;-78
2022/10/29 13:28:50;;;;;;;8.73;5.00;;;27.50;99.90;;;;;;4989554;28;20983;-77
2022/10/29 13:31:46;;;;;;;12.23;7.57;;;27.50;99.90;;;;;;4989956;28;20483;-78
2022/10/29 13:34:52;;;;;;;18.60;7.10;;;27.40;99.90;;;;;;4989080;28;20455;-78
2022/10/29 13:37:50;;;;;;;19.97;7.70;;;27.30;99.90;;;;;;4988770;28;20463;-78
2022/10/29 13:41:03;;;;;;;16.87;9.77;;;27.40;99.90;;;;;;4988538;28;20446;-77
2022/10/29 13:43:32;;;;;;;13.63;8.03;;;27.20;99.90;;;;;;4988933;28;20833;-79
2022/10/29 13:46:29;;;;;;;12.77;5.50;;;27.20;99.90;;;;;;4987639;28;20943;-77
2022/10/29 13:48:58;;;;;;;11.00;4.60;;;27.20;99.90;;;;;;4984508;28;20470;-78
2022/10/29 13:51:33;;;;;;;17.23;5.40;;;27.20;99.90;;;;;;4989059;28;21003;-79
2022/10/29 13:54:04;;;;;;;15.30;5.37;;;27.20;99.90;;;;;;4986741;28;20470;-77
2022/10/29 13:56:37;;;;;;;12.87;5.50;;;27.10;99.90;;;;;;4988165;28;20467;-77
2022/10/29 13:59:11;;;;;;;11.37;4.93;;;27.10;99.90;;;;;;4987701;28;20468;-78
2022/10/29 14:01:55;;;;;;;11.17;5.37;;;27.10;99.90;;;;;;4987784;28;20498;-77
2022/10/29 14:04:26;;;;;;;16.73;6.37;;;27.00;99.90;;;;;;4986726;28;20901;-78
2022/10/29 14:06:57;;;;;;;12.53;6.77;;;27.00;99.90;;;;;;4988418;28;20835;-77
2022/10/29 14:09:37;;;;;;;13.77;6.37;;;26.90;99.90;;;;;;4987317;28;20471;-77
2022/10/29 14:12:09;;;;;;;9.00;5.30;;;26.80;99.90;;;;;;4986788;28;20479;-77
2022/10/29 14:14:44;;;;;;;15.10;5.43;;;26.80;99.90;;;;;;4986408;28;20456;-77
2022/10/29 14:17:17;;;;;;;13.27;5.50;;;26.70;99.90;;;;;;4987207;28;20471;-77
2022/10/29 14:19:45;;;;;;;12.53;5.13;;;26.50;99.90;;;;;;4989224;28;20467;-77
2022/10/29 14:22:36;;;;;;;11.83;4.77;;;26.50;99.90;;;;;;4986972;28;20484;-77
2022/10/29 14:25:20;;;;;;;13.10;4.97;;;26.40;99.90;;;;;;4985195;28;20456;-78
2022/10/29 14:27:46;;;;;;;10.80;4.60;;;26.40;99.90;;;;;;4977747;28;20526;-78
2022/10/29 14:30:18;;;;;;;11.33;4.90;;;26.30;99.90;;;;;;4986797;28;20495;-78
2022/10/29 14:32:46;;;;;;;13.27;4.33;;;26.20;99.90;;;;;;4990322;28;20468;-78
2022/10/29 14:35:16;;;;;;;7.67;4.00;;;26.10;99.90;;;;;;4990505;28;21273;-78
2022/10/29 14:37:45;;;;;;;21.70;4.57;;;26.10;99.90;;;;;;4990710;28;20459;-78
2022/10/29 14:40:18;;;;;;;9.43;4.13;;;26.00;99.90;;;;;;4990751;28;20460;-78
2022/10/29 14:42:48;;;;;;;14.30;4.90;;;26.00;99.90;;;;;;4991336;28;20443;-78
2022/10/29 14:45:27;;;;;;;14.27;4.50;;;25.90;99.90;;;;;;4989820;28;20447;-77
2022/10/29 14:47:57;;;;;;;9.90;4.93;;;25.90;99.90;;;;;;4989060;28;20831;-77
2022/10/29 14:50:26;;;;;;;15.30;4.27;;;25.90;99.90;;;;;;4989305;28;20498;-76
2022/10/29 14:52:55;;;;;;;14.43;5.07;;;25.80;99.90;;;;;;4986273;28;20462;-77
2022/10/29 14:55:25;;;;;;;13.60;4.53;;;25.80;99.90;;;;;;4987709;28;20459;-76
2022/10/29 14:58:00;;;;;;;8.13;4.20;;;25.70;99.90;;;;;;4986428;28;20951;-76
2022/10/29 15:00:29;;;;;;;11.00;5.07;;;25.60;99.90;;;;;;4988739;28;20447;-78
2022/10/29 15:02:58;;;;;;;10.67;5.37;;;25.50;99.90;;;;;;4989591;28;20925;-76
2022/10/29 15:05:27;;;;;;;18.90;5.20;;;25.40;99.90;;;;;;4991789;28;20461;-77
2022/10/29 15:08:05;;;;;;;19.70;6.10;;;25.30;99.90;;;;;;4992246;28;20530;-78
2022/10/29 15:10:32;;;;;;;12.43;4.50;;;25.20;99.90;;;;;;4989880;28;20491;-82
2022/10/29 15:13:13;;;;;;;15.13;5.97;;;25.10;99.90;;;;;;4988570;28;20467;-71
2022/10/29 15:15:50;;;;;;;11.00;5.10;;;25.00;99.90;;;;;;4991258;28;20443;-77
2022/10/29 15:18:21;;;;;;;10.20;4.30;;;24.80;99.90;;;;;;4990287;28;20470;-79
2022/10/29 15:20:50;;;;;;;17.43;4.70;;;24.70;99.90;;;;;;4988869;28;20475;-76
2022/10/29 15:23:22;;;;;;;11.77;5.00;;;24.60;99.90;;;;;;4989684;28;20837;-77
2022/10/29 15:25:52;;;;;;;11.10;4.87;;;24.50;99.90;;;;;;4989799;28;20451;-76
2022/10/29 15:28:23;;;;;;;20.27;5.17;;;24.40;99.90;;;;;;4990064;28;20836;-75
2022/10/29 15:30:50;;;;;;;13.20;5.33;;;24.20;99.90;;;;;;4989104;28;20496;-75
2022/10/29 15:33:22;;;;;;;19.80;11.37;;;24.20;99.90;;;;;;4988391;28;20467;-78
2022/10/29 15:35:52;;;;;;;13.83;6.33;;;24.00;99.90;;;;;;4989246;28;21039;-77
2022/10/29 15:39:19;;;;;;;19.93;6.37;;;23.90;99.90;;;;;;4988113;28;20463;-72
2022/10/29 15:41:49;;;;;;;12.00;5.50;;;23.70;99.90;;;;;;4988378;28;20482;-75
2022/10/29 15:44:37;;;;;;;19.97;5.17;;;23.60;99.90;;;;;;4987977;28;20466;-75
2022/10/29 15:47:20;;;;;;;11.40;4.70;;;23.50;99.90;;;;;;4988190;28;20460;-76
2022/10/29 15:49:46;;;;;;;13.20;5.60;;;23.40;99.90;;;;;;4987156;28;20440;-76
2022/10/29 15:52:17;;;;;;;11.43;4.77;;;23.20;99.90;;;;;;4987855;28;20857;-77
2022/10/29 15:54:45;;;;;;;20.07;5.30;;;23.30;99.90;;;;;;4987095;28;20474;-76
2022/10/29 15:57:15;;;;;;;12.33;5.20;;;23.20;99.90;;;;;;4987563;28;20459;-76
2022/10/29 15:59:42;;;;;;;11.10;6.23;;;23.00;99.90;;;;;;4988167;28;20456;-77
2022/10/29 16:02:13;;;;;;;13.17;6.20;;;22.90;99.90;;;;;;4985937;28;20491;-77
2022/10/29 16:04:40;;;;;;;17.77;7.07;;;22.80;99.90;;;;;;4984614;28;20893;-76
2022/10/29 16:07:11;;;;;;;15.53;8.13;;;22.60;99.90;;;;;;4984226;28;20841;-76
2022/10/29 16:09:39;;;;;;;20.20;7.30;;;22.50;99.90;;;;;;4978554;28;20463;-76
2022/10/29 16:12:09;;;;;;;13.60;7.20;;;22.40;99.90;;;;;;4976370;28;20728;-77
2022/10/29 16:14:37;;;;;;;20.97;8.97;;;22.30;99.90;;;;;;4983748;28;20448;-75
2022/10/29 16:17:09;;;;;;;16.20;8.53;;;22.20;99.90;;;;;;4986608;28;20467;-76
2022/10/29 16:19:36;;;;;;;16.90;9.30;;;22.10;99.90;;;;;;4982401;28;20454;-76
2022/10/29 16:22:03;;;;;;;19.30;9.10;;;22.00;99.90;;;;;;4979873;28;20472;-76
2022/10/29 16:24:30;;;;;;;17.73;8.87;;;21.90;99.90;;;;;;4985592;28;20456;-74
2022/10/29 16:26:56;;;;;;;12.80;8.50;;;21.80;99.90;;;;;;4989892;28;20463;-77
2022/10/29 16:29:23;;;;;;;24.00;9.00;;;21.70;99.90;;;;;;4986002;28;20971;-76
2022/10/29 16:31:51;;;;;;;19.17;8.80;;;21.60;99.90;;;;;;4986531;28;20546;-80
2022/10/29 16:34:19;;;;;;;14.97;8.00;;;21.50;99.90;;;;;;4991192;28;20467;-81
2022/10/29 16:36:46;;;;;;;15.17;7.80;;;21.40;99.90;;;;;;4990103;28;20471;-76
2022/10/29 16:39:13;;;;;;;15.40;7.60;;;21.40;99.90;;;;;;4989823;28;21362;-75
2022/10/29 16:41:40;;;;;;;13.10;7.77;;;21.30;99.90;;;;;;4987624;28;20480;-76
2022/10/29 16:44:06;;;;;;;14.70;6.87;;;21.20;99.90;;;;;;4986658;28;20463;-76
2022/10/29 16:46:33;;;;;;;22.40;7.83;;;21.10;99.90;;;;;;4987093;28;20470;-77
2022/10/29 16:49:01;;;;;;;15.83;7.20;;;21.10;99.90;;;;;;4987010;28;20463;-76
2022/10/29 16:51:28;;;;;;;14.80;7.60;;;21.00;99.90;;;;;;4986788;28;20530;-76
2022/10/29 16:53:55;;;;;;;19.57;8.70;;;20.90;99.90;;;;;;4986364;28;20487;-76
2022/10/29 16:56:22;;;;;;;21.67;9.40;;;20.90;99.90;;;;;;4985777;28;20464;-76
2022/10/29 16:58:51;;;;;;;16.30;9.17;;;20.80;99.90;;;;;;4986962;28;20852;-76
2022/10/29 17:01:18;;;;;;;27.30;11.60;;;20.70;99.90;;;;;;4986454;28;20859;-77